sensor_id;sensor_type;location;lat;lon;timestamp;pressure;altitude;pressure_sealevel;temperature;humidity
39937;BME280;27803;42.740;23.340;2022-11-30T12:30:22;95757.41;;;4.45;100.00
39937;BME280;27803;42.740;23.340;2022-11-30T12:33:09;95764.56;;;4.51;100.00
39937;BME280;27803;42.740;23.340;2022-11-30T12:36:22;95765.91;;;4.55;100.00
39937;BME280;27803;42.740;23.340;2022-11-30T12:38:33;95733.44;;;4.43;100.00
39937;BME280;27803;42.740;23.340;2022-11-30T12:52:23;95761.31;;;4.49;100.00
39937;BME280;27803;42.740;23.340;2022-11-30T12:55:01;95758.53;;;4.42;100.00
39937;BME280;27803;42.740;23.340;2022-11-30T12:57:33;95730.88;;;4.25;100.00
39937;BME280;27803;42.740;23.340;2022-11-30T13:05:03;95760.75;;;4.37;100.00
39937;BME280;27803;42.740;23.340;2022-11-30T13:07:36;95729.34;;;4.14;100.00
39937;BME280;27803;42.740;23.340;2022-11-30T13:10:21;95770.28;;;4.37;100.00
39937;BME280;27803;42.740;23.340;2022-11-30T13:12:51;95776.94;;;4.39;100.00
39937;BME280;27803;42.740;23.340;2022-11-30T13:15:21;95773.03;;;4.35;100.00
39937;BME280;27803;42.740;23.340;2022-11-30T13:17:48;95739.41;;;4.17;100.00
39937;BME280;27803;42.740;23.340;2022-11-30T13:20:39;95767.34;;;4.32;100.00
39937;BME280;27803;42.740;23.340;2022-11-30T13:26:18;95780.22;;;4.23;100.00
39937;BME280;27803;42.740;23.340;2022-11-30T13:32:08;95754.69;;;4.29;100.00
39937;BME280;27803;42.740;23.340;2022-11-30T13:34:35;95718.91;;;4.06;100.00
39937;BME280;27803;42.740;23.340;2022-11-30T13:37:08;95775.41;;;4.29;100.00
39937;BME280;27803;42.740;23.340;2022-11-30T13:42:38;95768.00;;;4.34;100.00
39937;BME280;27803;42.740;23.340;2022-11-30T13:47:37;95766.75;;;4.38;100.00
39937;BME280;27803;42.740;23.340;2022-11-30T13:53:24;95756.09;;;4.41;100.00
39937;BME280;27803;42.740;23.340;2022-11-30T13:55:58;95764.81;;;4.40;100.00
39937;BME280;27803;42.740;23.340;2022-11-30T13:58:24;95781.97;;;4.41;100.00
39937;BME280;27803;42.740;23.340;2022-11-30T14:01:01;95767.09;;;4.43;100.00
39937;BME280;27803;42.740;23.340;2022-11-30T14:03:31;95743.81;;;4.43;100.00
39937;BME280;27803;42.740;23.340;2022-11-30T14:10:49;95749.78;;;4.43;100.00
39937;BME280;27803;42.740;23.340;2022-11-30T14:20:44;95667.09;;;3.98;100.00
39937;BME280;27803;42.740;23.340;2022-11-30T14:23:20;95738.91;;;4.40;100.00
39937;BME280;27803;42.740;23.340;2022-11-30T14:25:49;95733.22;;;4.36;100.00
39937;BME280;27803;42.740;23.340;2022-11-30T14:28:36;95736.34;;;4.40;100.00
39937;BME280;27803;42.740;23.340;2022-11-30T14:31:05;95727.38;;;4.34;100.00
39937;BME280;27803;42.740;23.340;2022-11-30T14:33:40;95734.94;;;4.28;100.00
39937;BME280;27803;42.740;23.340;2022-11-30T14:36:07;95746.84;;;4.20;100.00
39937;BME280;27803;42.740;23.340;2022-11-30T14:38:41;95746.66;;;3.96;100.00
39937;BME280;27803;42.740;23.340;2022-11-30T14:41:21;95729.72;;;4.02;100.00
39937;BME280;27803;42.740;23.340;2022-11-30T14:46:27;95741.19;;;3.99;100.00
39937;BME280;27803;42.740;23.340;2022-11-30T14:49:13;95747.69;;;4.03;100.00
39937;BME280;27803;42.740;23.340;2022-11-30T14:51:41;95740.59;;;4.05;100.00
39937;BME280;27803;42.740;23.340;2022-11-30T14:54:12;95773.56;;;4.03;100.00
39937;BME280;27803;42.740;23.340;2022-11-30T14:56:46;95753.16;;;4.00;100.00
39937;BME280;27803;42.740;23.340;2022-11-30T15:01:57;95771.94;;;4.02;100.00
39937;BME280;27803;42.740;23.340;2022-11-30T15:04:25;95770.31;;;4.01;100.00
39937;BME280;27803;42.740;23.340;2022-11-30T15:06:53;95780.66;;;4.01;100.00
39937;BME280;27803;42.740;23.340;2022-11-30T15:09:21;95767.63;;;3.93;100.00
39937;BME280;27803;42.740;23.340;2022-11-30T15:11:49;95745.75;;;3.70;100.00
39937;BME280;27803;42.740;23.340;2022-11-30T15:14:15;95774.50;;;3.84;100.00
39937;BME280;27803;42.740;23.340;2022-11-30T15:16:49;95771.25;;;3.82;100.00
39937;BME280;27803;42.740;23.340;2022-11-30T15:19:22;95768.50;;;3.84;100.00
39937;BME280;27803;42.740;23.340;2022-11-30T15:21:48;95767.47;;;3.77;100.00
39937;BME280;27803;42.740;23.340;2022-11-30T15:24:15;95793.03;;;3.80;100.00
39937;BME280;27803;42.740;23.340;2022-11-30T15:29:31;95738.94;;;3.69;100.00
39937;BME280;27803;42.740;23.340;2022-11-30T15:32:00;95761.41;;;3.86;100.00
39937;BME280;27803;42.740;23.340;2022-11-30T15:34:43;95734.88;;;3.66;100.00
39937;BME280;27803;42.740;23.340;2022-11-30T15:37:10;95773.69;;;3.84;100.00
39937;BME280;27803;42.740;23.340;2022-11-30T15:39:36;95739.91;;;3.68;100.00
39937;BME280;27803;42.740;23.340;2022-11-30T15:42:03;95737.91;;;3.62;100.00
39937;BME280;27803;42.740;23.340;2022-11-30T15:44:43;95750.09;;;3.69;100.00
39937;BME280;27803;42.740;23.340;2022-11-30T15:47:31;95794.75;;;3.89;100.00
39937;BME280;27803;42.740;23.340;2022-11-30T15:49:59;95743.06;;;3.62;100.00
39937;BME280;27803;42.740;23.340;2022-11-30T15:52:26;95786.47;;;3.85;100.00
39937;BME280;27803;42.740;23.340;2022-11-30T15:54:58;95745.22;;;3.66;100.00
39937;BME280;27803;42.740;23.340;2022-11-30T15:58:00;95778.28;;;3.90;100.00
39937;BME280;27803;42.740;23.340;2022-11-30T16:00:26;95780.19;;;3.88;100.00
39937;BME280;27803;42.740;23.340;2022-11-30T16:03:10;95750.53;;;3.65;100.00
39937;BME280;27803;42.740;23.340;2022-11-30T16:05:37;95786.47;;;3.85;100.00
39937;BME280;27803;42.740;23.340;2022-11-30T16:08:03;95754.47;;;3.69;100.00
39937;BME280;27803;42.740;23.340;2022-11-30T16:10:33;95780.50;;;3.85;100.00
39937;BME280;27803;42.740;23.340;2022-11-30T16:13:00;95761.91;;;3.72;100.00
39937;BME280;27803;42.740;23.340;2022-11-30T16:15:28;95746.31;;;3.64;100.00
39937;BME280;27803;42.740;23.340;2022-11-30T16:20:40;95781.88;;;3.79;100.00
39937;BME280;27803;42.740;23.340;2022-11-30T16:23:10;95805.03;;;3.81;100.00
39937;BME280;27803;42.740;23.340;2022-11-30T16:25:38;95805.31;;;3.78;100.00
39937;BME280;27803;42.740;23.340;2022-11-30T16:28:04;95756.66;;;3.64;100.00
39937;BME280;27803;42.740;23.340;2022-11-30T16:30:30;95809.59;;;3.87;100.00
39937;BME280;27803;42.740;23.340;2022-11-30T16:32:56;95754.47;;;3.69;100.00
39937;BME280;27803;42.740;23.340;2022-11-30T16:35:38;95795.13;;;3.94;100.00
39937;BME280;27803;42.740;23.340;2022-11-30T16:38:05;95801.28;;;3.93;100.00
39937;BME280;27803;42.740;23.340;2022-11-30T16:40:31;95760.44;;;3.69;100.00
39937;BME280;27803;42.740;23.340;2022-11-30T16:42:57;95798.88;;;3.82;100.00
39937;BME280;27803;42.740;23.340;2022-11-30T16:45:24;95762.06;;;3.70;100.00
39937;BME280;27803;42.740;23.340;2022-11-30T16:47:50;95784.84;;;3.84;100.00
39937;BME280;27803;42.740;23.340;2022-11-30T16:50:17;95788.63;;;3.90;100.00
39937;BME280;27803;42.740;23.340;2022-11-30T16:52:43;95779.53;;;3.86;100.00
39937;BME280;27803;42.740;23.340;2022-11-30T16:55:20;95789.16;;;3.93;100.00
39937;BME280;27803;42.740;23.340;2022-11-30T16:57:46;95748.31;;;3.70;100.00
39937;BME280;27803;42.740;23.340;2022-11-30T17:00:14;95805.78;;;3.91;100.00
39937;BME280;27803;42.740;23.340;2022-11-30T17:02:59;95811.47;;;3.95;100.00
39937;BME280;27803;42.740;23.340;2022-11-30T17:05:27;95767.53;;;3.67;100.00
39937;BME280;27803;42.740;23.340;2022-11-30T17:07:52;95809.22;;;3.82;100.00
39937;BME280;27803;42.740;23.340;2022-11-30T17:10:18;95798.22;;;3.80;100.00
39937;BME280;27803;42.740;23.340;2022-11-30T17:12:43;95770.84;;;3.59;100.00
39937;BME280;27803;42.740;23.340;2022-11-30T17:15:21;95792.09;;;3.81;100.00
39937;BME280;27803;42.740;23.340;2022-11-30T17:17:47;95799.25;;;3.87;100.00
39937;BME280;27803;42.740;23.340;2022-11-30T17:20:14;95780.31;;;3.69;100.00
39937;BME280;27803;42.740;23.340;2022-11-30T17:22:41;95795.03;;;3.86;100.00
39937;BME280;27803;42.740;23.340;2022-11-30T17:25:13;95800.06;;;3.87;100.00
39937;BME280;27803;42.740;23.340;2022-11-30T17:27:39;95813.44;;;3.83;100.00
39937;BME280;27803;42.740;23.340;2022-11-30T17:30:05;95805.69;;;3.83;100.00
39937;BME280;27803;42.740;23.340;2022-11-30T17:32:31;95813.16;;;3.86;100.00
39937;BME280;27803;42.740;23.340;2022-11-30T17:34:56;95812.88;;;3.89;100.00
39937;BME280;27803;42.740;23.340;2022-11-30T17:37:22;95809.31;;;3.90;100.00
39937;BME280;27803;42.740;23.340;2022-11-30T17:39:48;95806.72;;;3.90;100.00
39937;BME280;27803;42.740;23.340;2022-11-30T17:42:13;95802.53;;;3.89;100.00
39937;BME280;27803;42.740;23.340;2022-11-30T17:44:39;95806.06;;;3.88;100.00
39937;BME280;27803;42.740;23.340;2022-11-30T17:47:04;95799.94;;;3.89;100.00
39937;BME280;27803;42.740;23.340;2022-11-30T17:49:30;95776.19;;;3.76;100.00
39937;BME280;27803;42.740;23.340;2022-11-30T17:51:55;95805.84;;;3.99;100.00
39937;BME280;27803;42.740;23.340;2022-11-30T17:54:20;95808.16;;;4.02;100.00
39937;BME280;27803;42.740;23.340;2022-11-30T17:56:46;95816.34;;;3.98;100.00
39937;BME280;27803;42.740;23.340;2022-11-30T17:59:11;95807.19;;;4.03;100.00
39937;BME280;27803;42.740;23.340;2022-11-30T18:01:37;95771.53;;;3.79;100.00
39937;BME280;27803;42.740;23.340;2022-11-30T18:04:02;95801.06;;;4.04;100.00
39937;BME280;27803;42.740;23.340;2022-11-30T18:06:28;95819.47;;;4.01;100.00
39937;BME280;27803;42.740;23.340;2022-11-30T18:08:56;95804.75;;;4.02;100.00
39937;BME280;27803;42.740;23.340;2022-11-30T18:11:23;95766.06;;;3.82;100.00
39937;BME280;27803;42.740;23.340;2022-11-30T18:13:52;95794.25;;;4.03;100.00
39937;BME280;27803;42.740;23.340;2022-11-30T18:16:21;95811.41;;;4.04;100.00
39937;BME280;27803;42.740;23.340;2022-11-30T18:18:46;95807.84;;;4.05;100.00
39937;BME280;27803;42.740;23.340;2022-11-30T18:21:14;95807.19;;;4.03;100.00
39937;BME280;27803;42.740;23.340;2022-11-30T18:23:40;95762.00;;;3.80;100.00
39937;BME280;27803;42.740;23.340;2022-11-30T18:26:09;95775.97;;;3.87;100.00
39937;BME280;27803;42.740;23.340;2022-11-30T18:28:35;95823.97;;;3.99;100.00
39937;BME280;27803;42.740;23.340;2022-11-30T18:31:01;95773.16;;;3.80;100.00
39937;BME280;27803;42.740;23.340;2022-11-30T18:33:26;95803.56;;;3.96;100.00
39937;BME280;27803;42.740;23.340;2022-11-30T18:35:58;95797.06;;;3.92;100.00
39937;BME280;27803;42.740;23.340;2022-11-30T18:38:25;95784.91;;;3.75;100.00
39937;BME280;27803;42.740;23.340;2022-11-30T18:40:50;95802.75;;;3.96;100.00
39937;BME280;27803;42.740;23.340;2022-11-30T18:43:16;95797.88;;;3.92;100.00
39937;BME280;27803;42.740;23.340;2022-11-30T18:45:41;95766.13;;;3.73;100.00
39937;BME280;27803;42.740;23.340;2022-11-30T18:48:07;95770.72;;;3.79;100.00
39937;BME280;27803;42.740;23.340;2022-11-30T18:50:32;95808.72;;;3.96;100.00
39937;BME280;27803;42.740;23.340;2022-11-30T18:52:58;95809.78;;;4.03;100.00
39937;BME280;27803;42.740;23.340;2022-11-30T18:55:24;95822.34;;;3.98;100.00
39937;BME280;27803;42.740;23.340;2022-11-30T18:57:50;95805.84;;;3.99;100.00
39937;BME280;27803;42.740;23.340;2022-11-30T19:00:16;95798.25;;;3.98;100.00
39937;BME280;27803;42.740;23.340;2022-11-30T19:02:46;95817.16;;;3.98;100.00
39937;BME280;27803;42.740;23.340;2022-11-30T19:05:13;95820.19;;;3.93;100.00
39937;BME280;27803;42.740;23.340;2022-11-30T19:10:22;95805.78;;;3.91;100.00
39937;BME280;27803;42.740;23.340;2022-11-30T19:12:47;95771.31;;;3.73;100.00
39937;BME280;27803;42.740;23.340;2022-11-30T19:15:13;95806.53;;;4.01;100.00
39937;BME280;27803;42.740;23.340;2022-11-30T19:17:38;95775.59;;;3.82;100.00
39937;BME280;27803;42.740;23.340;2022-11-30T19:20:04;95803.94;;;4.01;100.00
39937;BME280;27803;42.740;23.340;2022-11-30T19:22:29;95815.19;;;4.10;100.00
39937;BME280;27803;42.740;23.340;2022-11-30T19:24:55;95813.13;;;4.13;100.00
39937;BME280;27803;42.740;23.340;2022-11-30T19:27:20;95786.94;;;3.99;100.00
39937;BME280;27803;42.740;23.340;2022-11-30T19:29:46;95816.38;;;4.15;100.00
39937;BME280;27803;42.740;23.340;2022-11-30T19:32:11;95784.78;;;3.94;100.00
39937;BME280;27803;42.740;23.340;2022-11-30T19:34:37;95812.81;;;4.16;100.00
39937;BME280;27803;42.740;23.340;2022-11-30T19:37:02;95801.56;;;4.08;100.00
39937;BME280;27803;42.740;23.340;2022-11-30T19:39:27;95774.16;;;3.97;100.00
39937;BME280;27803;42.740;23.340;2022-11-30T19:41:53;95784.06;;;4.02;100.00
39937;BME280;27803;42.740;23.340;2022-11-30T19:44:18;95834.19;;;4.18;100.00
39937;BME280;27803;42.740;23.340;2022-11-30T19:46:43;95816.16;;;4.27;100.00
39937;BME280;27803;42.740;23.340;2022-11-30T19:49:09;95780.34;;;4.04;100.00
39937;BME280;27803;42.740;23.340;2022-11-30T19:51:35;95824.22;;;4.23;100.00
39937;BME280;27803;42.740;23.340;2022-11-30T19:54:01;95818.06;;;4.24;100.00
39937;BME280;27803;42.740;23.340;2022-11-30T19:56:28;95820.88;;;4.31;100.00
39937;BME280;27803;42.740;23.340;2022-11-30T19:58:55;95822.38;;;4.34;100.00
39937;BME280;27803;42.740;23.340;2022-11-30T20:01:23;95825.63;;;4.36;100.00
39937;BME280;27803;42.740;23.340;2022-11-30T20:03:50;95830.72;;;4.28;100.00
39937;BME280;27803;42.740;23.340;2022-11-30T20:06:16;95836.28;;;4.33;100.00
39937;BME280;27803;42.740;23.340;2022-11-30T20:08:41;95827.53;;;4.34;100.00
39937;BME280;27803;42.740;23.340;2022-11-30T20:11:08;95799.88;;;4.16;100.00
39937;BME280;27803;42.740;23.340;2022-11-30T20:13:34;95837.31;;;4.40;100.00
39937;BME280;27803;42.740;23.340;2022-11-30T20:16:11;95835.09;;;4.45;100.00
39937;BME280;27803;42.740;23.340;2022-11-30T20:18:36;95830.50;;;4.39;100.00
39937;BME280;27803;42.740;23.340;2022-11-30T20:21:14;95829.25;;;4.43;100.00
39937;BME280;27803;42.740;23.340;2022-11-30T20:23:40;95799.59;;;4.19;100.00
39937;BME280;27803;42.740;23.340;2022-11-30T20:26:11;95808.81;;;4.22;100.00
39937;BME280;27803;42.740;23.340;2022-11-30T20:28:37;95841.75;;;4.30;100.00
39937;BME280;27803;42.740;23.340;2022-11-30T20:31:05;95826.00;;;4.23;100.00
39937;BME280;27803;42.740;23.340;2022-11-30T20:33:32;95830.06;;;4.25;100.00
39937;BME280;27803;42.740;23.340;2022-11-30T20:36:00;95797.22;;;4.08;100.00
39937;BME280;27803;42.740;23.340;2022-11-30T20:38:27;95846.91;;;4.30;100.00
39937;BME280;27803;42.740;23.340;2022-11-30T20:40:52;95855.66;;;4.29;100.00
39937;BME280;27803;42.740;23.340;2022-11-30T20:43:17;95808.53;;;4.07;100.00
39937;BME280;27803;42.740;23.340;2022-11-30T20:45:43;95810.97;;;4.09;100.00
39937;BME280;27803;42.740;23.340;2022-11-30T20:48:08;95836.94;;;4.17;100.00
39937;BME280;27803;42.740;23.340;2022-11-30T20:50:33;95850.75;;;4.25;100.00
39937;BME280;27803;42.740;23.340;2022-11-30T20:52:59;95803.56;;;3.96;100.00
39937;BME280;27803;42.740;23.340;2022-11-30T20:55:24;95816.22;;;3.99;100.00
39937;BME280;27803;42.740;23.340;2022-11-30T20:57:49;95798.38;;;3.96;100.00
39937;BME280;27803;42.740;23.340;2022-11-30T21:00:15;95830.94;;;4.16;100.00
39937;BME280;27803;42.740;23.340;2022-11-30T21:02:42;95849.44;;;4.21;100.00
39937;BME280;27803;42.740;23.340;2022-11-30T21:05:07;95840.69;;;4.22;100.00
39937;BME280;27803;42.740;23.340;2022-11-30T21:07:33;95855.03;;;4.17;100.00
39937;BME280;27803;42.740;23.340;2022-11-30T21:09:58;95849.06;;;4.16;100.00
39937;BME280;27803;42.740;23.340;2022-11-30T21:12:24;95844.59;;;4.09;100.00
39937;BME280;27803;42.740;23.340;2022-11-30T21:14:49;95833.50;;;3.99;100.00
39937;BME280;27803;42.740;23.340;2022-11-30T21:17:15;95841.13;;;4.00;100.00
39937;BME280;27803;42.740;23.340;2022-11-30T21:19:40;95847.91;;;4.01;100.00
39937;BME280;27803;42.740;23.340;2022-11-30T21:22:05;95786.06;;;3.63;100.00
39937;BME280;27803;42.740;23.340;2022-11-30T21:24:31;95804.19;;;3.80;100.00
39937;BME280;27803;42.740;23.340;2022-11-30T21:26:57;95856.34;;;4.03;100.00
39937;BME280;27803;42.740;23.340;2022-11-30T21:29:22;95846.88;;;3.94;100.00
39937;BME280;27803;42.740;23.340;2022-11-30T21:31:48;95851.47;;;4.00;100.00
39937;BME280;27803;42.740;23.340;2022-11-30T21:34:13;95839.50;;;3.99;100.00
39937;BME280;27803;42.740;23.340;2022-11-30T21:36:39;95851.47;;;4.00;100.00
39937;BME280;27803;42.740;23.340;2022-11-30T21:39:05;95845.19;;;4.03;100.00
39937;BME280;27803;42.740;23.340;2022-11-30T21:41:35;95811.81;;;3.82;100.00
39937;BME280;27803;42.740;23.340;2022-11-30T21:44:01;95840.81;;;4.03;100.00
39937;BME280;27803;42.740;23.340;2022-11-30T21:46:26;95848.88;;;4.00;100.00
39937;BME280;27803;42.740;23.340;2022-11-30T21:48:52;95840.94;;;3.84;100.00
39937;BME280;27803;42.740;23.340;2022-11-30T21:51:21;95818.44;;;3.67;100.00
39937;BME280;27803;42.740;23.340;2022-11-30T21:53:49;95839.59;;;3.80;100.00
39937;BME280;27803;42.740;23.340;2022-11-30T21:56:23;95832.28;;;3.75;100.00
39937;BME280;27803;42.740;23.340;2022-11-30T21:58:49;95838.34;;;3.84;100.00
39937;BME280;27803;42.740;23.340;2022-11-30T22:01:17;95824.09;;;3.80;100.00
39937;BME280;27803;42.740;23.340;2022-11-30T22:03:43;95843.69;;;3.82;100.00
39937;BME280;27803;42.740;23.340;2022-11-30T22:06:10;95830.88;;;3.81;100.00
39937;BME280;27803;42.740;23.340;2022-11-30T22:08:36;95825.94;;;3.87;100.00
39937;BME280;27803;42.740;23.340;2022-11-30T22:11:07;95824.31;;;3.86;100.00
39937;BME280;27803;42.740;23.340;2022-11-30T22:13:33;95822.69;;;3.85;100.00
39937;BME280;27803;42.740;23.340;2022-11-30T22:16:01;95827.34;;;3.82;100.00
39937;BME280;27803;42.740;23.340;2022-11-30T22:18:27;95773.28;;;3.61;100.00
39937;BME280;27803;42.740;23.340;2022-11-30T22:20:52;95769.22;;;3.58;100.00
39937;BME280;27803;42.740;23.340;2022-11-30T22:23:18;95759.69;;;3.59;100.00
39937;BME280;27803;42.740;23.340;2022-11-30T22:25:43;95769.22;;;3.58;100.00
39937;BME280;27803;42.740;23.340;2022-11-30T22:28:09;95766.34;;;3.62;100.00
39937;BME280;27803;42.740;23.340;2022-11-30T22:30:34;95815.38;;;3.81;100.00
39937;BME280;27803;42.740;23.340;2022-11-30T22:33:00;95787.69;;;3.64;100.00
39937;BME280;27803;42.740;23.340;2022-11-30T22:35:25;95817.28;;;3.79;100.00
39937;BME280;27803;42.740;23.340;2022-11-30T22:37:50;95765.28;;;3.54;100.00
39937;BME280;27803;42.740;23.340;2022-11-30T22:40:16;95808.47;;;3.72;100.00
39937;BME280;27803;42.740;23.340;2022-11-30T22:42:41;95771.13;;;3.56;100.00
39937;BME280;27803;42.740;23.340;2022-11-30T22:45:07;95821.34;;;3.81;100.00
39937;BME280;27803;42.740;23.340;2022-11-30T22:47:32;95781.94;;;3.70;100.00
39937;BME280;27803;42.740;23.340;2022-11-30T22:49:58;95769.97;;;3.69;100.00
39937;BME280;27803;42.740;23.340;2022-11-30T22:52:23;95803.56;;;3.96;100.00
39937;BME280;27803;42.740;23.340;2022-11-30T22:54:48;95808.81;;;4.04;100.00
39937;BME280;27803;42.740;23.340;2022-11-30T22:57:14;95800.00;;;3.97;100.00
39937;BME280;27803;42.740;23.340;2022-11-30T22:59:39;95802.97;;;4.02;100.00
39937;BME280;27803;42.740;23.340;2022-11-30T23:02:04;95797.13;;;4.00;100.00
39937;BME280;27803;42.740;23.340;2022-11-30T23:04:30;95769.84;;;3.88;100.00
39937;BME280;27803;42.740;23.340;2022-11-30T23:06:55;95793.97;;;4.06;100.00
39937;BME280;27803;42.740;23.340;2022-11-30T23:09:22;95805.66;;;4.10;100.00
39937;BME280;27803;42.740;23.340;2022-11-30T23:11:48;95808.91;;;4.12;100.00
39937;BME280;27803;42.740;23.340;2022-11-30T23:14:14;95799.22;;;4.14;100.00
39937;BME280;27803;42.740;23.340;2022-11-30T23:16:40;95817.63;;;4.11;100.00
39937;BME280;27803;42.740;23.340;2022-11-30T23:19:06;95769.25;;;3.94;100.00
39937;BME280;27803;42.740;23.340;2022-11-30T23:21:35;95764.38;;;3.91;100.00
39937;BME280;27803;42.740;23.340;2022-11-30T23:24:03;95804.91;;;4.18;100.00
39937;BME280;27803;42.740;23.340;2022-11-30T23:26:31;95765.03;;;3.93;100.00
39937;BME280;27803;42.740;23.340;2022-11-30T23:28:59;95787.22;;;4.13;100.00
39937;BME280;27803;42.740;23.340;2022-11-30T23:31:30;95801.50;;;4.17;100.00
39937;BME280;27803;42.740;23.340;2022-11-30T23:33:56;95763.50;;;4.00;100.00
39937;BME280;27803;42.740;23.340;2022-11-30T23:36:22;95798.63;;;4.20;100.00
39937;BME280;27803;42.740;23.340;2022-11-30T23:38:54;95792.50;;;4.21;100.00
39937;BME280;27803;42.740;23.340;2022-11-30T23:41:19;95764.31;;;4.01;100.00
39937;BME280;27803;42.740;23.340;2022-11-30T23:43:45;95765.13;;;4.01;100.00
39937;BME280;27803;42.740;23.340;2022-11-30T23:46:10;95799.28;;;4.22;100.00
39937;BME280;27803;42.740;23.340;2022-11-30T23:48:36;95775.19;;;4.04;100.00
39937;BME280;27803;42.740;23.340;2022-11-30T23:51:02;95817.78;;;4.28;100.00
39937;BME280;27803;42.740;23.340;2022-11-30T23:53:27;95778.13;;;4.09;100.00
39937;BME280;27803;42.740;23.340;2022-11-30T23:55:53;95797.50;;;4.23;100.00
39937;BME280;27803;42.740;23.340;2022-11-30T23:58:19;95770.31;;;4.01;100.00
